Star Dieppe — LEQZ3 — position and weather

sailwx.info

Track history (hours):
 
Tides and Currents Weather Stations Pressure Air Temp Water Temp Dewpoint Dewpoint Depression Visibility Wind Speed Wind Dir Waves Ship Positions

Star Dieppe

Last reported at 2014-Dec-12 13:20 UTC. Time now 2014-Dec-22 03:31 UTC.
Position N 38°53' E 118°01'.
Warning: this ship's position is 9 days out of date.

Length 182 m; draft 10.1 m.

Type: Cargo ship. MMSI: 257439000.

Date/timePositionNaut miles runAvg speedWind from/ knotsBaromVisibWave heightAir tempDewpointWater temp
2014-Dec-12 13:20N 38°53' E 118°01'0 0.2
2014-Dec-12 12:27N 38°53' E 118°02'0 0.0
2014-Dec-12 11:32N 38°53' E 118°02'2 1.9
2014-Dec-12 10:32N 38°52' E 117°59'5 4.5
2014-Dec-12 09:32N 38°54' E 117°55'7 7.5
2014-Dec-12 08:33N 38°57' E 117°46'0 0.3
2014-Dec-12 07:33N 38°57' E 117°46'0 0.0
2014-Dec-12 06:31N 38°57' E 117°46'0 0.0
2014-Dec-12 05:33N 38°57' E 117°46'0 0.0
2014-Dec-12 04:32N 38°57' E 117°46'0 0.0
2014-Dec-12 03:32N 38°57' E 117°46'0 0.0
2014-Dec-12 02:26N 38°57' E 117°46'0 0.0
2014-Dec-12 01:31N 38°57' E 117°46'0 0.0
2014-Dec-12 00:31N 38°57' E 117°46'0 0.0
2014-Dec-11 22:31N 38°57' E 117°46'0 0.0
2014-Dec-11 21:30N 38°57' E 117°46'0 0.0
2014-Dec-11 20:30N 38°57' E 117°46'0 0.0
2014-Dec-11 19:30N 38°57' E 117°46'0 0.0
2014-Dec-11 18:29N 38°57' E 117°46'0 0.0
2014-Dec-11 17:29N 38°57' E 117°46'0 0.0
2014-Dec-11 16:29N 38°57' E 117°46'0 0.0
2014-Dec-11 15:29N 38°57' E 117°46'0 0.0
2014-Dec-11 14:22N 38°57' E 117°46'0 0.0
2014-Dec-11 13:28N 38°57' E 117°46'0 0.0
2014-Dec-11 12:28N 38°57' E 117°46'0 0.0
2014-Dec-11 11:33N 38°57' E 117°46'0 0.0
2014-Dec-11 10:27N 38°57' E 117°46'0 0.0
2014-Dec-11 09:33N 38°57' E 117°46'0 0.0
2014-Dec-11 08:33N 38°57' E 117°46'0 0.0
2014-Dec-11 07:26N 38°57' E 117°46'0 0.0
2014-Dec-11 06:32N 38°57' E 117°46'0 0.0
2014-Dec-11 05:32N 38°57' E 117°46'0 0.0
2014-Dec-11 04:31N 38°57' E 117°46'0 0.0
2014-Dec-11 03:31N 38°57' E 117°46'0 0.0
2014-Dec-11 02:13N 38°57' E 117°46'0 0.0
2014-Dec-11 01:24N 38°57' E 117°46'0 0.0
2014-Dec-11 00:30N 38°57' E 117°46'0 0.0
2014-Dec-10 23:12N 38°57' E 117°46'0 0.0
2014-Dec-10 22:24N 38°57' E 117°46'0 0.0
2014-Dec-10 21:29N 38°57' E 117°46'0 0.0
2014-Dec-10 20:29N 38°57' E 117°46'0 0.0
2014-Dec-10 19:23N 38°57' E 117°46'0 0.0
2014-Dec-10 18:29N 38°57' E 117°46'0 0.0
2014-Dec-10 17:28N 38°57' E 117°46'0 0.0
2014-Dec-10 16:28N 38°57' E 117°46'0 0.0
2014-Dec-10 14:28N 38°57' E 117°46'0 0.0
2014-Dec-10 12:15N 38°57' E 117°46'0 0.0
2014-Dec-10 11:27N 38°57' E 117°46'0 0.0
2014-Dec-10 10:33N 38°57' E 117°46'0 0.0
2014-Dec-10 09:32N 38°57' E 117°46'0 0.0
2014-Dec-10 08:26N 38°57' E 117°46'0 0.0
2014-Dec-10 07:32N 38°57' E 117°46'0 0.0
2014-Dec-10 06:31N 38°57' E 117°46'0 0.0
2014-Dec-10 05:31N 38°57' E 117°46'0 0.0
2014-Dec-10 04:31N 38°57' E 117°46'0 0.0
2014-Dec-10 03:31N 38°57' E 117°46'0 0.0
2014-Dec-10 02:24N 38°57' E 117°46'0 0.0
2014-Dec-10 01:30N 38°57' E 117°46'0 0.0
2014-Dec-10 00:24N 38°57' E 117°46'0 0.0
2014-Dec-09 23:29N 38°57' E 117°46'0 0.0
2014-Dec-09 22:29N 38°57' E 117°46'0 0.0
2014-Dec-09 21:29N 38°57' E 117°46'0 0.0
2014-Dec-09 20:29N 38°57' E 117°46'0 0.0
2014-Dec-09 19:28N 38°57' E 117°46'0 0.0
2014-Dec-09 18:28N 38°57' E 117°46'0 0.0
2014-Dec-09 17:28N 38°57' E 117°46'0 0.0
2014-Dec-09 16:28N 38°57' E 117°46'0 0.0
2014-Dec-09 15:15N 38°57' E 117°46'0 0.0
2014-Dec-09 14:33N 38°57' E 117°46'0 0.0
2014-Dec-09 13:33N 38°57' E 117°46'0 0.0
2014-Dec-09 12:33N 38°57' E 117°46'0 0.0
2014-Dec-09 11:26N 38°57' E 117°46'0 0.0
2014-Dec-09 10:32N 38°57' E 117°46'0 0.0
2014-Dec-09 09:32N 38°57' E 117°46'0 0.0
2014-Dec-09 08:32N 38°57' E 117°46'3 2.8
2014-Dec-09 07:32N 38°56' E 117°49'1010.2
2014-Dec-09 06:33N 38°51' E 118°00'3 2.5
2014-Dec-09 05:32N 38°54' E 118°02'0 0.0
2014-Dec-09 04:30N 38°54' E 118°02'0 0.0
2014-Dec-09 03:29N 38°54' E 118°02'0 0.1
2014-Dec-09 02:23N 38°54' E 118°02'0 0.0
2014-Dec-09 01:29N 38°54' E 118°02'0 0.0
2014-Dec-09 00:28N 38°54' E 118°02'0 0.0
2014-Dec-08 23:28N 38°54' E 118°02'2 1.8
2014-Dec-08 22:33N 38°52' E 118°03'156 8.5
2014-Dec-08 04:06N 38°25' E 121°20'610.1
2014-Dec-08 03:31N 38°23' E 121°27'44110.2
2014-Dec-06 08:22N 31°06' E 122°36'1114.0
2014-Dec-06 07:33N 31°06' E 122°23'1312.6
2014-Dec-06 06:33N 31°11' E 122°10'1313.1
2014-Dec-06 05:33N 31°16' E 121°55'1212.2
2014-Dec-06 04:33N 31°20' E 121°42'10 9.9
2014-Dec-06 03:33N 31°25' E 121°32'9 8.8
2014-Dec-06 02:33N 31°31' E 121°24'1312.9
2014-Dec-06 01:33N 31°39' E 121°13'1414.4
2014-Dec-06 00:34N 31°47' E 120°58'1 1.3
2014-Dec-05 23:28N 31°46' E 120°57'0 0.0
2014-Dec-05 22:33N 31°46' E 120°57'0 0.0
2014-Dec-05 21:33N 31°46' E 120°57'0 0.0
2014-Dec-05 20:32N 31°46' E 120°57'0 0.0
2014-Dec-05 19:31N 31°46' E 120°57'0 0.0
2014-Dec-05 18:33N 31°46' E 120°57'0 0.0
2014-Dec-05 17:33N 31°46' E 120°57'0 0.0
2014-Dec-05 16:32N 31°46' E 120°57'0 0.0
2014-Dec-05 15:31N 31°46' E 120°57'0 0.0
2014-Dec-05 14:33N 31°46' E 120°57'0 0.0
2014-Dec-05 13:33N 31°46' E 120°57'0 0.0
2014-Dec-05 12:29N 31°46' E 120°57'0 0.0
2014-Dec-05 11:31N 31°46' E 120°57'0 0.0
2014-Dec-05 10:18N 31°46' E 120°57'0 0.0
2014-Dec-05 09:30N 31°46' E 120°57'0 0.0
2014-Dec-05 08:26N 31°46' E 120°57'0 0.0
2014-Dec-05 07:13N 31°46' E 120°57'0 0.0
2014-Dec-05 06:24N 31°46' E 120°57'0 0.0
2014-Dec-05 05:30N 31°46' E 120°57'0 0.0
2014-Dec-05 04:32N 31°46' E 120°57'0 0.0
2014-Dec-05 03:31N 31°46' E 120°57'0 0.0
2014-Dec-05 02:33N 31°46' E 120°57'0 0.0
2014-Dec-05 01:33N 31°46' E 120°57'1 0.5
2014-Dec-05 00:33N 31°46' E 120°57'5 4.6
2014-Dec-04 23:31N 31°47' E 121°03'0 0.1
2014-Dec-04 22:33N 31°47' E 121°03'0 0.0
2014-Dec-04 21:32N 31°47' E 121°03'0 0.0
2014-Dec-04 20:28N 31°47' E 121°03'0 0.1
2014-Dec-04 19:31N 31°47' E 121°03'0 0.1
2014-Dec-04 18:06N 31°47' E 121°03'0 0.2
2014-Dec-04 17:29N 31°47' E 121°03'0 0.0
2014-Dec-04 15:28N 31°47' E 121°03'0 0.2
2014-Dec-04 14:33N 31°47' E 121°03'0 0.0
2014-Dec-04 09:25N 31°47' E 121°03'0 0.0
2014-Dec-04 08:21N 31°47' E 121°03'0 0.0
2014-Dec-04 07:15N 31°47' E 121°03'0 0.1
2014-Dec-04 05:17N 31°47' E 121°03'0 0.0
2014-Dec-04 04:32N 31°47' E 121°03'0 0.0
2014-Dec-04 03:28N 31°47' E 121°03'0 0.1
2014-Dec-04 02:33N 31°47' E 121°03'0 0.2
2014-Dec-04 01:33N 31°47' E 121°03'0 0.0
2014-Dec-04 00:33N 31°47' E 121°03'0 0.0
2014-Dec-03 23:32N 31°47' E 121°03'0 0.0
2014-Dec-03 22:25N 31°47' E 121°03'0 0.0
2014-Dec-03 21:21N 31°47' E 121°03'0 0.0
2014-Dec-03 20:30N 31°47' E 121°03'0 0.0
2014-Dec-03 19:26N 31°47' E 121°03'0 0.0
2014-Dec-03 18:10N 31°47' E 121°03'0 0.1
2014-Dec-03 17:31N 31°47' E 121°03'0 0.1
2014-Dec-03 16:24N 31°47' E 121°03'0 0.0
2014-Dec-03 15:32N 31°47' E 121°03'0 0.0
2014-Dec-03 14:32N 31°47' E 121°03'0 0.2
2014-Dec-03 13:28N 31°47' E 121°03'0 0.0
2014-Dec-03 09:16N 31°47' E 121°03'0 0.0
2014-Dec-03 08:10N 31°47' E 121°03'0 0.0
2014-Dec-03 07:33N 31°47' E 121°03'0 0.0
2014-Dec-03 06:26N 31°47' E 121°03'0 0.2
2014-Dec-03 05:30N 31°47' E 121°03'0 0.0
2014-Dec-03 04:33N 31°47' E 121°03'0 0.0
2014-Dec-03 02:31N 31°47' E 121°03'0 0.0
2014-Dec-03 01:28N 31°47' E 121°03'0 0.1
2014-Dec-03 00:32N 31°47' E 121°03'0 0.1
2014-Dec-02 23:28N 31°47' E 121°03'0 0.0
2014-Dec-02 22:33N 31°47' E 121°03'0 0.0
2014-Dec-02 21:21N 31°47' E 121°03'0 0.0
2014-Dec-02 20:20N 31°47' E 121°03'0 0.0
2014-Dec-02 19:32N 31°47' E 121°03'0 0.0
2014-Dec-02 18:31N 31°47' E 121°03'0 0.0
2014-Dec-02 17:33N 31°47' E 121°03'0 0.5
2014-Dec-02 16:32N 31°46' E 121°03'1110.7
2014-Dec-02 15:33N 31°40' E 121°13'10 9.6
2014-Dec-02 14:33N 31°33' E 121°20'3 3.3
2014-Dec-02 13:31N 31°30' E 121°23'  
Track history (hours):
 
Tides and Currents Weather Stations Pressure Air Temp Water Temp Dewpoint Dewpoint Depression Visibility Wind Speed Wind Dir Waves Ship Positions

Star Dieppe

Last reported at 2014-Dec-12 13:20 UTC. Time now 2014-Dec-22 03:31 UTC.
Position N 38°53' E 118°01'.
Warning: this ship's position is 9 days out of date.

Length 182 m; draft 10.1 m.

Type: Cargo ship. MMSI: 257439000.

Date/timePositionNaut miles runAvg speedWind from/ knotsBaromVisibWave heightAir tempDewpointWater temp
2014-Dec-12 13:20N 38°53' E 118°01'0 0.2
2014-Dec-12 12:27N 38°53' E 118°02'0 0.0
2014-Dec-12 11:32N 38°53' E 118°02'2 1.9
2014-Dec-12 10:32N 38°52' E 117°59'5 4.5
2014-Dec-12 09:32N 38°54' E 117°55'7 7.5
2014-Dec-12 08:33N 38°57' E 117°46'0 0.3
2014-Dec-12 07:33N 38°57' E 117°46'0 0.0
2014-Dec-12 06:31N 38°57' E 117°46'0 0.0
2014-Dec-12 05:33N 38°57' E 117°46'0 0.0
2014-Dec-12 04:32N 38°57' E 117°46'0 0.0
2014-Dec-12 03:32N 38°57' E 117°46'0 0.0
2014-Dec-12 02:26N 38°57' E 117°46'0 0.0
2014-Dec-12 01:31N 38°57' E 117°46'0 0.0
2014-Dec-12 00:31N 38°57' E 117°46'0 0.0
2014-Dec-11 22:31N 38°57' E 117°46'0 0.0
2014-Dec-11 21:30N 38°57' E 117°46'0 0.0
2014-Dec-11 20:30N 38°57' E 117°46'0 0.0
2014-Dec-11 19:30N 38°57' E 117°46'0 0.0
2014-Dec-11 18:29N 38°57' E 117°46'0 0.0
2014-Dec-11 17:29N 38°57' E 117°46'0 0.0
2014-Dec-11 16:29N 38°57' E 117°46'0 0.0
2014-Dec-11 15:29N 38°57' E 117°46'0 0.0
2014-Dec-11 14:22N 38°57' E 117°46'0 0.0
2014-Dec-11 13:28N 38°57' E 117°46'0 0.0
2014-Dec-11 12:28N 38°57' E 117°46'0 0.0
2014-Dec-11 11:33N 38°57' E 117°46'0 0.0
2014-Dec-11 10:27N 38°57' E 117°46'0 0.0
2014-Dec-11 09:33N 38°57' E 117°46'0 0.0
2014-Dec-11 08:33N 38°57' E 117°46'0 0.0
2014-Dec-11 07:26N 38°57' E 117°46'0 0.0
2014-Dec-11 06:32N 38°57' E 117°46'0 0.0
2014-Dec-11 05:32N 38°57' E 117°46'0 0.0
2014-Dec-11 04:31N 38°57' E 117°46'0 0.0
2014-Dec-11 03:31N 38°57' E 117°46'0 0.0
2014-Dec-11 02:13N 38°57' E 117°46'0 0.0
2014-Dec-11 01:24N 38°57' E 117°46'0 0.0
2014-Dec-11 00:30N 38°57' E 117°46'0 0.0
2014-Dec-10 23:12N 38°57' E 117°46'0 0.0
2014-Dec-10 22:24N 38°57' E 117°46'0 0.0
2014-Dec-10 21:29N 38°57' E 117°46'0 0.0
2014-Dec-10 20:29N 38°57' E 117°46'0 0.0
2014-Dec-10 19:23N 38°57' E 117°46'0 0.0
2014-Dec-10 18:29N 38°57' E 117°46'0 0.0
2014-Dec-10 17:28N 38°57' E 117°46'0 0.0
2014-Dec-10 16:28N 38°57' E 117°46'0 0.0
2014-Dec-10 14:28N 38°57' E 117°46'0 0.0
2014-Dec-10 12:15N 38°57' E 117°46'0 0.0
2014-Dec-10 11:27N 38°57' E 117°46'0 0.0
2014-Dec-10 10:33N 38°57' E 117°46'0 0.0
2014-Dec-10 09:32N 38°57' E 117°46'0 0.0
2014-Dec-10 08:26N 38°57' E 117°46'0 0.0
2014-Dec-10 07:32N 38°57' E 117°46'0 0.0
2014-Dec-10 06:31N 38°57' E 117°46'0 0.0
2014-Dec-10 05:31N 38°57' E 117°46'0 0.0
2014-Dec-10 04:31N 38°57' E 117°46'0 0.0
2014-Dec-10 03:31N 38°57' E 117°46'0 0.0
2014-Dec-10 02:24N 38°57' E 117°46'0 0.0
2014-Dec-10 01:30N 38°57' E 117°46'0 0.0
2014-Dec-10 00:24N 38°57' E 117°46'0 0.0
2014-Dec-09 23:29N 38°57' E 117°46'0 0.0
2014-Dec-09 22:29N 38°57' E 117°46'0 0.0
2014-Dec-09 21:29N 38°57' E 117°46'0 0.0
2014-Dec-09 20:29N 38°57' E 117°46'0 0.0
2014-Dec-09 19:28N 38°57' E 117°46'0 0.0
2014-Dec-09 18:28N 38°57' E 117°46'0 0.0
2014-Dec-09 17:28N 38°57' E 117°46'0 0.0
2014-Dec-09 16:28N 38°57' E 117°46'0 0.0
2014-Dec-09 15:15N 38°57' E 117°46'0 0.0
2014-Dec-09 14:33N 38°57' E 117°46'0 0.0
2014-Dec-09 13:33N 38°57' E 117°46'0 0.0
2014-Dec-09 12:33N 38°57' E 117°46'0 0.0
2014-Dec-09 11:26N 38°57' E 117°46'0 0.0
2014-Dec-09 10:32N 38°57' E 117°46'0 0.0
2014-Dec-09 09:32N 38°57' E 117°46'0 0.0
2014-Dec-09 08:32N 38°57' E 117°46'3 2.8
2014-Dec-09 07:32N 38°56' E 117°49'1010.2
2014-Dec-09 06:33N 38°51' E 118°00'3 2.5
2014-Dec-09 05:32N 38°54' E 118°02'0 0.0
2014-Dec-09 04:30N 38°54' E 118°02'0 0.0
2014-Dec-09 03:29N 38°54' E 118°02'0 0.1
2014-Dec-09 02:23N 38°54' E 118°02'0 0.0
2014-Dec-09 01:29N 38°54' E 118°02'0 0.0
2014-Dec-09 00:28N 38°54' E 118°02'0 0.0
2014-Dec-08 23:28N 38°54' E 118°02'2 1.8
2014-Dec-08 22:33N 38°52' E 118°03'156 8.5
2014-Dec-08 04:06N 38°25' E 121°20'610.1
2014-Dec-08 03:31N 38°23' E 121°27'44110.2
2014-Dec-06 08:22N 31°06' E 122°36'1114.0
2014-Dec-06 07:33N 31°06' E 122°23'1312.6
2014-Dec-06 06:33N 31°11' E 122°10'1313.1
2014-Dec-06 05:33N 31°16' E 121°55'1212.2
2014-Dec-06 04:33N 31°20' E 121°42'10 9.9
2014-Dec-06 03:33N 31°25' E 121°32'9 8.8
2014-Dec-06 02:33N 31°31' E 121°24'1312.9
2014-Dec-06 01:33N 31°39' E 121°13'1414.4
2014-Dec-06 00:34N 31°47' E 120°58'1 1.3
2014-Dec-05 23:28N 31°46' E 120°57'0 0.0
2014-Dec-05 22:33N 31°46' E 120°57'0 0.0
2014-Dec-05 21:33N 31°46' E 120°57'0 0.0
2014-Dec-05 20:32N 31°46' E 120°57'0 0.0
2014-Dec-05 19:31N 31°46' E 120°57'0 0.0
2014-Dec-05 18:33N 31°46' E 120°57'0 0.0
2014-Dec-05 17:33N 31°46' E 120°57'0 0.0
2014-Dec-05 16:32N 31°46' E 120°57'0 0.0
2014-Dec-05 15:31N 31°46' E 120°57'0 0.0
2014-Dec-05 14:33N 31°46' E 120°57'0 0.0
2014-Dec-05 13:33N 31°46' E 120°57'0 0.0
2014-Dec-05 12:29N 31°46' E 120°57'0 0.0
2014-Dec-05 11:31N 31°46' E 120°57'0 0.0
2014-Dec-05 10:18N 31°46' E 120°57'0 0.0
2014-Dec-05 09:30N 31°46' E 120°57'0 0.0
2014-Dec-05 08:26N 31°46' E 120°57'0 0.0
2014-Dec-05 07:13N 31°46' E 120°57'0 0.0
2014-Dec-05 06:24N 31°46' E 120°57'0 0.0
2014-Dec-05 05:30N 31°46' E 120°57'0 0.0
2014-Dec-05 04:32N 31°46' E 120°57'0 0.0
2014-Dec-05 03:31N 31°46' E 120°57'0 0.0
2014-Dec-05 02:33N 31°46' E 120°57'0 0.0
2014-Dec-05 01:33N 31°46' E 120°57'1 0.5
2014-Dec-05 00:33N 31°46' E 120°57'5 4.6
2014-Dec-04 23:31N 31°47' E 121°03'0 0.1
2014-Dec-04 22:33N 31°47' E 121°03'0 0.0
2014-Dec-04 21:32N 31°47' E 121°03'0 0.0
2014-Dec-04 20:28N 31°47' E 121°03'0 0.1
2014-Dec-04 19:31N 31°47' E 121°03'0 0.1
2014-Dec-04 18:06N 31°47' E 121°03'0 0.2
2014-Dec-04 17:29N 31°47' E 121°03'0 0.0
2014-Dec-04 15:28N 31°47' E 121°03'0 0.2
2014-Dec-04 14:33N 31°47' E 121°03'0 0.0
2014-Dec-04 09:25N 31°47' E 121°03'0 0.0
2014-Dec-04 08:21N 31°47' E 121°03'0 0.0
2014-Dec-04 07:15N 31°47' E 121°03'0 0.1
2014-Dec-04 05:17N 31°47' E 121°03'0 0.0
2014-Dec-04 04:32N 31°47' E 121°03'0 0.0
2014-Dec-04 03:28N 31°47' E 121°03'0 0.1
2014-Dec-04 02:33N 31°47' E 121°03'0 0.2
2014-Dec-04 01:33N 31°47' E 121°03'0 0.0
2014-Dec-04 00:33N 31°47' E 121°03'0 0.0
2014-Dec-03 23:32N 31°47' E 121°03'0 0.0
2014-Dec-03 22:25N 31°47' E 121°03'0 0.0
2014-Dec-03 21:21N 31°47' E 121°03'0 0.0
2014-Dec-03 20:30N 31°47' E 121°03'0 0.0
2014-Dec-03 19:26N 31°47' E 121°03'0 0.0
2014-Dec-03 18:10N 31°47' E 121°03'0 0.1
2014-Dec-03 17:31N 31°47' E 121°03'0 0.1
2014-Dec-03 16:24N 31°47' E 121°03'0 0.0
2014-Dec-03 15:32N 31°47' E 121°03'0 0.0
2014-Dec-03 14:32N 31°47' E 121°03'0 0.2
2014-Dec-03 13:28N 31°47' E 121°03'0 0.0
2014-Dec-03 09:16N 31°47' E 121°03'0 0.0
2014-Dec-03 08:10N 31°47' E 121°03'0 0.0
2014-Dec-03 07:33N 31°47' E 121°03'0 0.0
2014-Dec-03 06:26N 31°47' E 121°03'0 0.2
2014-Dec-03 05:30N 31°47' E 121°03'0 0.0
2014-Dec-03 04:33N 31°47' E 121°03'0 0.0
2014-Dec-03 02:31N 31°47' E 121°03'0 0.0
2014-Dec-03 01:28N 31°47' E 121°03'0 0.1
2014-Dec-03 00:32N 31°47' E 121°03'0 0.1
2014-Dec-02 23:28N 31°47' E 121°03'0 0.0
2014-Dec-02 22:33N 31°47' E 121°03'0 0.0
2014-Dec-02 21:21N 31°47' E 121°03'0 0.0
2014-Dec-02 20:20N 31°47' E 121°03'0 0.0
2014-Dec-02 19:32N 31°47' E 121°03'0 0.0
2014-Dec-02 18:31N 31°47' E 121°03'0 0.0
2014-Dec-02 17:33N 31°47' E 121°03'0 0.5
2014-Dec-02 16:32N 31°46' E 121°03'1110.7
2014-Dec-02 15:33N 31°40' E 121°13'10 9.6
2014-Dec-02 14:33N 31°33' E 121°20'3 3.3
2014-Dec-02 13:31N 31°30' E 121°23'  

Dump ship's entire track history